createdAt,value
2019-03-17T00:02:20.823Z,98843.29
2019-03-17T00:05:10.774Z,98828.14
2019-03-17T00:08:00.643Z,98841.33
2019-03-17T00:10:52.592Z,98836.63
2019-03-17T00:13:33.633Z,98821.81
2019-03-17T00:16:04.211Z,98815.94
2019-03-17T00:18:54.078Z,98811.30
2019-03-17T00:21:43.935Z,98817.75
2019-03-17T00:24:33.780Z,98818.89
2019-03-17T00:27:23.612Z,98799.03
2019-03-17T00:30:13.474Z,98833.72
2019-03-17T00:33:03.377Z,98810.64
2019-03-17T00:35:53.216Z,98825.17
2019-03-17T00:38:43.101Z,98815.94
2019-03-17T00:41:32.959Z,98816.93
2019-03-17T00:44:22.855Z,98815.34
2019-03-17T00:46:53.409Z,98806.55
2019-03-17T00:49:43.350Z,98805.63
2019-03-17T00:52:33.226Z,98798.06
2019-03-17T00:55:23.092Z,98801.92
2019-03-17T00:57:55.211Z,98804.11
2019-03-17T01:00:45.281Z,98806.27
2019-03-17T01:03:35.163Z,98812.60
2019-03-17T01:06:25.056Z,98794.78
2019-03-17T01:09:14.904Z,98802.08
2019-03-17T01:18:11.099Z,98795.07
2019-03-17T01:21:00.961Z,98805.16
2019-03-17T01:23:50.861Z,98784.09
2019-03-17T01:26:40.734Z,98800.20
2019-03-17T01:29:30.626Z,98794.74
2019-03-17T01:32:20.653Z,98786.39
2019-03-17T01:34:51.145Z,98784.74
2019-03-17T01:37:59.967Z,98781.39
2019-03-17T01:40:49.866Z,98781.39
2019-03-17T01:43:20.319Z,98779.30
2019-03-17T01:46:10.172Z,98774.68
2019-03-17T01:49:19.009Z,98786.93
2019-03-17T01:52:20.621Z,98774.72
2019-03-17T01:55:03.472Z,98781.47
2019-03-17T01:57:34.368Z,98781.47
2019-03-17T02:00:43.189Z,98768.84
2019-03-17T02:03:44.273Z,98778.53
2019-03-17T02:06:29.148Z,98779.80
2019-03-17T02:09:11.604Z,98769.69
2019-03-17T02:11:54.958Z,98769.28
2019-03-17T02:14:26.343Z,98769.28
2019-03-17T02:17:35.159Z,98769.29
2019-03-17T02:20:25.032Z,98769.29
2019-03-17T02:23:14.839Z,98759.56
2019-03-17T02:26:04.722Z,98764.20
2019-03-17T02:28:54.604Z,98760.42
2019-03-17T02:31:44.539Z,98757.47
2019-03-17T02:34:34.423Z,98756.21
2019-03-17T02:37:24.351Z,98754.50
2019-03-17T02:40:14.230Z,98757.89
2019-03-17T02:43:16.028Z,98753.60
2019-03-17T02:45:48.338Z,98753.60
2019-03-17T02:48:38.644Z,98762.51
2019-03-17T02:51:40.391Z,98740.13
2019-03-17T02:54:22.983Z,98728.30
2019-03-17T02:57:04.953Z,98753.56
2019-03-17T02:59:48.127Z,98736.22
2019-03-17T03:02:32.229Z,98728.22
2019-03-17T03:05:06.084Z,98728.22
2019-03-17T03:07:55.897Z,98772.42
2019-03-17T03:10:45.765Z,98753.47
2019-03-17T03:13:35.654Z,98759.86
2019-03-17T03:16:25.503Z,98761.16
2019-03-17T03:18:55.955Z,98761.64
2019-03-17T03:21:45.902Z,98751.10
2019-03-17T03:24:54.710Z,98768.47
2019-03-17T03:27:44.565Z,98768.47
2019-03-17T03:30:34.393Z,98763.84
2019-03-17T03:33:24.306Z,98771.03
2019-03-17T03:36:14.125Z,98770.19
2019-03-17T03:38:44.604Z,98770.61
2019-03-17T03:41:53.466Z,98765.55
2019-03-17T03:44:23.922Z,98765.55
2019-03-17T03:47:13.741Z,98768.91
2019-03-17T03:50:03.689Z,98760.89
2019-03-17T03:52:53.529Z,98768.93
2019-03-17T03:55:43.423Z,98765.12
2019-03-17T03:58:33.245Z,98768.51
2019-03-17T04:01:23.120Z,98765.55
2019-03-17T04:03:53.639Z,98764.69
2019-03-17T04:06:43.577Z,98761.34
2019-03-17T04:09:33.403Z,98760.48
2019-03-17T04:12:23.310Z,98762.17
2019-03-17T04:14:54.402Z,98760.50
2019-03-17T04:17:44.294Z,98757.12
2019-03-17T04:20:14.923Z,98757.52
2019-03-17T04:23:04.754Z,98749.95
2019-03-17T04:25:54.615Z,98758.38
2019-03-17T04:28:44.508Z,98764.29
2019-03-17T04:31:14.974Z,98764.69
2019-03-17T04:34:04.852Z,98760.91
2019-03-17T04:37:08.177Z,98762.19
2019-03-17T04:39:40.926Z,98762.19
2019-03-17T04:42:30.779Z,98764.27
2019-03-17T04:45:20.635Z,98757.11
2019-03-17T04:48:10.608Z,98743.62
2019-03-17T04:51:00.496Z,98755.42
2019-03-17T04:53:50.365Z,98749.94
2019-03-17T04:56:40.302Z,98762.18
2019-03-17T04:59:30.101Z,98749.94
2019-03-17T05:02:19.971Z,98752.05
2019-03-17T05:05:10.017Z,98750.37
2019-03-17T05:07:59.906Z,98758.81
2019-03-17T05:10:49.756Z,98766.39
2019-03-17T05:13:20.253Z,98765.11
2019-03-17T05:15:51.037Z,98759.64
2019-03-17T05:18:52.983Z,98766.39
2019-03-17T05:21:26.006Z,98766.39
2019-03-17T05:24:16.872Z,98766.80
2019-03-17T05:27:06.738Z,98769.77
2019-03-17T05:30:08.485Z,98763.43
2019-03-17T05:32:39.164Z,98763.43
2019-03-17T05:35:29.115Z,98755.84
2019-03-17T05:38:19.037Z,98756.28
2019-03-17T05:41:09.014Z,98761.77
2019-03-17T05:43:58.955Z,98757.12
2019-03-17T05:46:48.807Z,98756.27
2019-03-17T05:49:57.619Z,98764.69
2019-03-17T05:52:59.527Z,98757.53
2019-03-17T05:55:30.566Z,98757.53
2019-03-17T05:58:20.476Z,98760.05
2019-03-17T06:01:10.330Z,98772.28
2019-03-17T06:04:00.208Z,98759.61
2019-03-17T06:06:50.059Z,98759.22
2019-03-17T06:09:39.955Z,98760.06
2019-03-17T06:12:41.532Z,98754.56
2019-03-17T06:15:12.675Z,98754.56
2019-03-17T06:18:14.485Z,98759.61
2019-03-17T06:20:47.433Z,98759.61
2019-03-17T06:23:37.319Z,98767.19
2019-03-17T06:26:27.229Z,98765.08
2019-03-17T06:29:17.111Z,98766.34
2019-03-17T06:32:07.013Z,98768.89
2019-03-17T06:34:56.844Z,98775.63
2019-03-17T06:37:46.727Z,98787.00
2019-03-17T06:40:36.595Z,98786.16
2019-03-17T06:43:26.479Z,98786.13
2019-03-17T06:46:16.350Z,98795.41
2019-03-17T06:49:17.852Z,98788.62
2019-03-17T06:52:00.921Z,98790.23
2019-03-17T06:57:35.485Z,98791.44
2019-03-17T07:00:25.323Z,98790.94
2019-03-17T07:03:15.188Z,98783.24
2019-03-17T07:05:45.635Z,98781.09
2019-03-17T07:08:35.498Z,98777.59
2019-03-17T07:11:25.351Z,98777.91
2019-03-17T07:14:15.244Z,98776.93
2019-03-17T07:17:05.083Z,98784.50
2019-03-17T07:19:35.777Z,98774.57
2019-03-17T07:22:25.639Z,98775.70
2019-03-17T07:25:15.516Z,98779.34
2019-03-17T07:28:05.360Z,98775.83
2019-03-17T07:30:55.248Z,98766.70
2019-03-17T07:33:45.102Z,98760.98
2019-03-17T07:36:34.969Z,98762.48
2019-03-17T07:42:10.638Z,98762.01
2019-03-17T07:45:00.538Z,98766.07
2019-03-17T07:47:50.369Z,98763.60
2019-03-17T07:50:20.817Z,98765.63
2019-03-17T07:53:10.698Z,98752.60
2019-03-17T07:55:41.123Z,98757.30
2019-03-17T07:58:30.996Z,98753.63
2019-03-17T08:01:20.842Z,98752.47
2019-03-17T08:04:10.690Z,98744.02
2019-03-17T08:07:00.555Z,98754.19
2019-03-17T08:09:50.454Z,98753.73
2019-03-17T08:12:40.291Z,98755.13
2019-03-17T08:15:30.216Z,98762.48
2019-03-17T08:18:20.078Z,98757.59
2019-03-17T08:21:09.941Z,98757.73
2019-03-17T08:23:59.799Z,98750.81
2019-03-17T08:26:50.165Z,98750.95
2019-03-17T08:29:41.305Z,98752.20
2019-03-17T08:32:31.189Z,98755.10
2019-03-17T08:35:21.026Z,98759.97
2019-03-17T08:38:21.249Z,98755.66
2019-03-17T08:43:57.083Z,98756.77
2019-03-17T08:46:47.064Z,98760.84
2019-03-17T08:49:36.952Z,98753.01
2019-03-17T08:52:26.839Z,98740.94
2019-03-17T08:55:16.735Z,98744.39
2019-03-17T08:58:06.663Z,98737.73
2019-03-17T09:00:56.535Z,98727.06
2019-03-17T09:03:27.064Z,98728.05
2019-03-17T09:06:17.068Z,98721.44
2019-03-17T09:09:08.806Z,98735.25
2019-03-17T09:11:39.246Z,98725.77
2019-03-17T09:14:29.100Z,98723.52
2019-03-17T09:17:18.981Z,98727.58
2019-03-17T09:20:09.115Z,98714.14
2019-03-17T09:22:59.021Z,98715.50
2019-03-17T09:25:48.904Z,98707.15
2019-03-17T09:28:38.763Z,98702.56
2019-03-17T09:31:28.640Z,98696.52
2019-03-17T09:34:18.552Z,98693.84
2019-03-17T09:36:50.958Z,98704.91
2019-03-17T09:39:40.833Z,98695.98
2019-03-17T09:42:30.676Z,98694.27
2019-03-17T09:45:20.556Z,98688.67
2019-03-17T09:48:10.430Z,98683.75
2019-03-17T09:51:00.476Z,98685.16
2019-03-17T09:53:50.356Z,98698.27
2019-03-17T09:56:52.015Z,98703.95
2019-03-17T09:59:24.308Z,98706.84
2019-03-17T10:02:14.188Z,98702.25
2019-03-17T10:05:04.099Z,98688.03
2019-03-17T10:07:54.061Z,98674.63
2019-03-17T10:10:43.923Z,98671.46
2019-03-17T10:13:33.829Z,98668.23
2019-03-17T10:16:23.720Z,98670.08
2019-03-17T10:18:54.378Z,98671.05
2019-03-17T10:21:44.583Z,98678.47
2019-03-17T10:24:34.467Z,98680.58
2019-03-17T10:27:36.216Z,98677.19
2019-03-17T10:30:11.079Z,98676.27
2019-03-17T10:32:42.584Z,98672.20
2019-03-17T10:35:32.806Z,98663.98
2019-03-17T10:38:22.682Z,98656.37
2019-03-17T10:41:12.674Z,98652.99
2019-03-17T10:44:02.503Z,98657.19
2019-03-17T10:46:52.387Z,98646.88
2019-03-17T10:49:42.219Z,98648.66
2019-03-17T10:52:14.350Z,98638.05
2019-03-17T10:55:04.216Z,98641.59
2019-03-17T10:57:54.458Z,98631.11
2019-03-17T11:00:44.309Z,98633.80
2019-03-17T11:03:34.204Z,98637.44
2019-03-17T11:06:24.078Z,98625.66
2019-03-17T11:08:54.676Z,98626.34
2019-03-17T11:11:44.521Z,98624.59
2019-03-17T11:14:34.399Z,98620.11
2019-03-17T11:17:24.253Z,98612.95
2019-03-17T11:19:54.797Z,98604.81
2019-03-17T11:22:44.760Z,98609.33
2019-03-17T11:25:34.623Z,98606.61
2019-03-17T11:28:24.483Z,98605.61
2019-03-17T11:31:14.337Z,98597.36
2019-03-17T11:33:44.925Z,98597.29
2019-03-17T11:36:34.816Z,98598.87
2019-03-17T11:39:36.861Z,98588.03
2019-03-17T11:42:07.824Z,98582.90
2019-03-17T11:44:57.675Z,98567.87
2019-03-17T11:47:47.627Z,98562.65
2019-03-17T11:50:37.481Z,98561.48
2019-03-17T11:53:27.330Z,98552.87
2019-03-17T11:56:17.178Z,98544.92
2019-03-17T11:59:07.091Z,98543.58
2019-03-17T12:01:56.931Z,98530.11
2019-03-17T12:04:46.804Z,98527.97
2019-03-17T12:07:36.675Z,98523.58
2019-03-17T12:10:26.572Z,98510.03
2019-03-17T12:12:57.178Z,98492.67
2019-03-17T12:15:47.054Z,98485.91
2019-03-17T12:18:36.897Z,98477.70
2019-03-17T12:21:26.830Z,98465.24
2019-03-17T12:24:16.680Z,98455.06
2019-03-17T12:27:06.572Z,98458.03
2019-03-17T12:29:56.434Z,98453.37
2019-03-17T12:32:46.313Z,98453.12
2019-03-17T12:35:36.178Z,98447.67
2019-03-17T12:38:26.144Z,98443.42
2019-03-17T12:41:16.147Z,98450.06
2019-03-17T12:44:06.051Z,98434.04
2019-03-17T12:46:56.013Z,98431.70
2019-03-17T12:49:46.026Z,98421.78
2019-03-17T12:52:35.975Z,98413.52
2019-03-17T12:55:06.879Z,98405.35
2019-03-17T12:57:56.812Z,98403.41
2019-03-17T13:00:27.428Z,98403.36
2019-03-17T13:03:17.310Z,98400.15
2019-03-17T13:06:07.761Z,98390.48
2019-03-17T13:08:38.234Z,98374.34
2019-03-17T13:11:28.157Z,98377.02
2019-03-17T13:14:18.085Z,98370.13
2019-03-17T13:17:07.920Z,98359.88
2019-03-17T13:19:57.835Z,98358.12
2019-03-17T13:22:47.681Z,98349.40
2019-03-17T13:25:37.608Z,98336.94
2019-03-17T13:28:27.481Z,98326.61
2019-03-17T13:31:17.352Z,98322.55
2019-03-17T13:34:07.202Z,98321.42
2019-03-17T13:36:57.085Z,98308.84
2019-03-17T13:39:27.518Z,98304.98
2019-03-17T13:42:17.467Z,98295.20
2019-03-17T13:45:07.495Z,98297.70
2019-03-17T13:47:57.391Z,98296.08
2019-03-17T13:50:47.236Z,98289.48
2019-03-17T13:53:37.156Z,98280.42
2019-03-17T13:56:09.235Z,98281.51
2019-03-17T13:58:59.253Z,98274.83
2019-03-17T14:01:49.155Z,98268.20
2019-03-17T14:04:39.007Z,98268.47
2019-03-17T14:07:09.490Z,98263.97
2019-03-17T14:09:59.320Z,98269.49
2019-03-17T14:12:49.209Z,98254.02
2019-03-17T14:15:21.322Z,98254.64
2019-03-17T14:18:11.251Z,98249.91
2019-03-17T14:21:01.249Z,98241.63
2019-03-17T14:23:51.117Z,98238.31
2019-03-17T14:26:21.560Z,98233.72
2019-03-17T14:28:52.011Z,98222.81
2019-03-17T14:31:41.865Z,98218.26
2019-03-17T14:34:31.689Z,98214.50
2019-03-17T14:37:21.587Z,98218.04
2019-03-17T14:40:12.635Z,98209.34
2019-03-17T14:43:02.580Z,98205.30
2019-03-17T14:45:52.501Z,98200.94
2019-03-17T14:48:42.364Z,98197.27
2019-03-17T14:51:32.230Z,98190.09
2019-03-17T14:54:22.106Z,98187.60
2019-03-17T14:57:11.990Z,98172.55
2019-03-17T15:00:01.877Z,98178.34
2019-03-17T15:02:51.752Z,98169.94
2019-03-17T15:05:41.637Z,98169.08
2019-03-17T15:08:42.700Z,98153.88
2019-03-17T15:11:27.570Z,98153.21
2019-03-17T15:14:00.873Z,98153.21
2019-03-17T15:16:51.290Z,98154.78
2019-03-17T15:19:41.138Z,98152.88
2019-03-17T15:22:31.009Z,98158.97
2019-03-17T15:25:20.866Z,98155.34
2019-03-17T15:28:10.821Z,98150.20
2019-03-17T15:31:11.029Z,98147.09
2019-03-17T15:33:43.836Z,98143.11
2019-03-17T15:36:14.691Z,98136.48
2019-03-17T15:42:08.715Z,98122.35
2019-03-17T15:44:58.592Z,98117.87
2019-03-17T15:47:48.627Z,98118.78
2019-03-17T15:50:38.573Z,98115.03
2019-03-17T15:53:28.531Z,98114.31
2019-03-17T15:56:18.482Z,98105.94
2019-03-17T15:58:49.262Z,98097.12
2019-03-17T16:01:39.159Z,98091.24
2019-03-17T16:04:29.173Z,98090.23
2019-03-17T16:07:19.112Z,98084.55
2019-03-17T16:09:49.593Z,98081.72
2019-03-17T16:12:58.408Z,98080.16
2019-03-17T16:15:48.315Z,98080.16
2019-03-17T16:18:38.168Z,98068.59
2019-03-17T16:21:28.041Z,98070.59
2019-03-17T16:24:17.931Z,98069.91
2019-03-17T16:27:07.820Z,98058.98
2019-03-17T16:29:57.663Z,98070.06
2019-03-17T16:32:28.276Z,98070.92
2019-03-17T16:35:18.270Z,98065.27
2019-03-17T16:38:08.207Z,98059.06
2019-03-17T16:40:58.041Z,98055.04
2019-03-17T16:43:47.925Z,98050.50
2019-03-17T16:46:37.813Z,98054.23
2019-03-17T16:49:27.703Z,98050.58
2019-03-17T16:52:17.597Z,98050.34
2019-03-17T16:54:48.200Z,98046.25
2019-03-17T16:57:38.096Z,98044.78
2019-03-17T17:03:30.261Z,98035.63
2019-03-17T17:06:02.367Z,98029.14
2019-03-17T17:08:52.277Z,98028.58
2019-03-17T17:11:42.166Z,98026.00
2019-03-17T17:14:32.073Z,98018.41
2019-03-17T17:17:21.991Z,98022.02
2019-03-17T17:20:14.479Z,98021.40
2019-03-17T17:23:04.391Z,98013.02
2019-03-17T17:25:54.314Z,98014.95
2019-03-17T17:28:44.191Z,98007.30
2019-03-17T17:31:34.126Z,98009.80
2019-03-17T17:34:24.112Z,98017.44
2019-03-17T17:36:54.685Z,98014.98
2019-03-17T17:39:44.604Z,98021.92
2019-03-17T17:42:34.477Z,98017.63
2019-03-17T17:45:24.208Z,98016.44
2019-03-17T17:47:54.844Z,98011.91
2019-03-17T17:50:44.693Z,98016.99
2019-03-17T17:53:34.615Z,98015.85
2019-03-17T17:56:24.483Z,98014.38
2019-03-17T17:58:54.988Z,98021.94
2019-03-17T18:01:44.873Z,98023.66
2019-03-17T18:04:35.134Z,98029.69
2019-03-17T18:07:24.969Z,98027.91
2019-03-17T18:10:14.958Z,98025.02
2019-03-17T18:12:45.605Z,98027.87
2019-03-17T18:15:35.596Z,98028.16
2019-03-17T18:18:25.538Z,98036.22
2019-03-17T18:21:15.428Z,98034.95
2019-03-17T18:24:05.352Z,98039.98
2019-03-17T18:26:55.357Z,98032.80
2019-03-17T18:29:45.237Z,98038.62
2019-03-17T18:32:15.847Z,98036.19
2019-03-17T18:35:06.134Z,98036.30
2019-03-17T18:37:56.075Z,98035.72
2019-03-17T18:40:45.936Z,98029.03
2019-03-17T18:43:35.850Z,98036.07
2019-03-17T18:46:25.743Z,98039.44
2019-03-17T18:49:15.650Z,98037.99
2019-03-17T18:52:05.567Z,98042.84
2019-03-17T18:54:55.522Z,98047.27
2019-03-17T18:57:45.416Z,98047.02
2019-03-17T19:00:17.138Z,98051.78
2019-03-17T19:03:07.074Z,98057.25
2019-03-17T19:05:57.038Z,98052.91
2019-03-17T19:08:46.914Z,98052.11
2019-03-17T19:11:36.841Z,98051.42
2019-03-17T19:14:45.731Z,98060.82
2019-03-17T19:17:35.668Z,98055.81
2019-03-17T19:20:25.606Z,98059.86
2019-03-17T19:23:15.461Z,98059.57
2019-03-17T19:26:05.518Z,98067.92
2019-03-17T19:28:55.416Z,98070.74
2019-03-17T19:31:45.348Z,98064.18
2019-03-17T19:34:35.277Z,98066.00
2019-03-17T19:37:25.170Z,98070.86
2019-03-17T19:40:15.472Z,98071.11
2019-03-17T19:42:57.985Z,98084.17
2019-03-17T19:45:24.661Z,98084.86
2019-03-17T19:47:55.149Z,98086.80
2019-03-17T19:50:45.191Z,98085.94
2019-03-17T19:53:35.094Z,98099.38
2019-03-17T19:56:25.049Z,98104.05
2019-03-17T19:59:14.938Z,98108.67
2019-03-17T20:02:04.898Z,98113.10
2019-03-17T20:04:54.787Z,98115.05
2019-03-17T20:07:44.839Z,98118.41
2019-03-17T20:10:34.669Z,98122.61
2019-03-17T20:13:24.546Z,98121.19
2019-03-17T20:15:55.054Z,98129.43
2019-03-17T20:21:47.702Z,98120.42
2019-03-17T20:24:37.578Z,98121.02
2019-03-17T20:27:27.483Z,98123.06
2019-03-17T20:30:17.619Z,98137.65
2019-03-17T20:33:07.513Z,98133.89
2019-03-17T20:35:57.395Z,98137.91
2019-03-17T20:38:47.302Z,98142.05
2019-03-17T20:41:37.177Z,98142.94
2019-03-17T20:44:27.106Z,98147.63
2019-03-17T20:47:36.019Z,98159.80
2019-03-17T20:50:26.020Z,98167.88
2019-03-17T20:53:16.084Z,98173.16
2019-03-17T20:56:05.993Z,98179.18
2019-03-17T20:58:55.928Z,98188.13
2019-03-17T21:01:45.814Z,98199.72
2019-03-17T21:04:35.698Z,98212.02
2019-03-17T21:07:25.610Z,98213.24
2019-03-17T21:10:15.587Z,98223.36
2019-03-17T21:13:05.516Z,98235.22
2019-03-17T21:15:55.359Z,98229.43
2019-03-17T21:18:45.291Z,98241.77
2019-03-17T21:21:35.224Z,98255.48
2019-03-17T21:24:25.155Z,98261.21
2019-03-17T21:26:55.602Z,98264.37
2019-03-17T21:29:45.573Z,98281.81
2019-03-17T21:32:35.554Z,98288.67
2019-03-17T21:35:25.433Z,98310.24
2019-03-17T21:38:15.356Z,98311.44
2019-03-17T21:41:07.242Z,98328.09
2019-03-17T21:43:58.954Z,98353.46
2019-03-17T21:46:31.637Z,98349.41
2019-03-17T21:49:21.541Z,98365.77
2019-03-17T21:52:11.478Z,98378.41
2019-03-17T21:55:01.469Z,98389.19
2019-03-17T21:57:51.393Z,98393.89
2019-03-17T22:00:41.282Z,98419.28
2019-03-17T22:03:31.157Z,98424.53
2019-03-17T22:06:01.793Z,98462.41
2019-03-17T22:08:51.743Z,98472.25
2019-03-17T22:11:41.675Z,98482.23
2019-03-17T22:14:31.610Z,98517.63
2019-03-17T22:17:21.522Z,98569.42
2019-03-17T22:20:11.465Z,98566.97
2019-03-17T22:23:01.346Z,98607.33
2019-03-17T22:25:51.210Z,98595.24
2019-03-17T22:28:21.851Z,98628.34
2019-03-17T22:31:11.740Z,98623.94
2019-03-17T22:34:01.690Z,98666.08
2019-03-17T22:36:51.589Z,98655.62
2019-03-17T22:39:41.471Z,98678.19
2019-03-17T22:42:31.379Z,98671.98
2019-03-17T22:45:21.290Z,98702.82
2019-03-17T22:47:51.946Z,98682.09
2019-03-17T22:50:41.833Z,98714.14
2019-03-17T22:53:31.725Z,98743.79
2019-03-17T22:56:21.614Z,98738.83
2019-03-17T22:58:52.122Z,98769.00
2019-03-17T23:01:41.977Z,98768.89
2019-03-17T23:04:31.865Z,98774.37
2019-03-17T23:07:03.981Z,98791.16
2019-03-17T23:09:34.467Z,98788.52
2019-03-17T23:12:24.349Z,98787.41
2019-03-17T23:14:54.942Z,98812.40
2019-03-17T23:17:44.807Z,98797.79
2019-03-17T23:20:34.709Z,98812.23
2019-03-17T23:23:24.570Z,98831.70
2019-03-17T23:25:55.213Z,98851.16
2019-03-17T23:28:45.082Z,98867.98
2019-03-17T23:31:34.963Z,98884.69
2019-03-17T23:34:24.768Z,98893.83
2019-03-17T23:36:55.316Z,98900.44
2019-03-17T23:39:45.177Z,98904.19
2019-03-17T23:42:34.999Z,98920.21
2019-03-17T23:45:24.827Z,98949.79
2019-03-17T23:47:55.354Z,98944.61
2019-03-17T23:50:45.177Z,98997.44
2019-03-17T23:53:35.105Z,98963.63
2019-03-17T23:56:24.936Z,98970.61
2019-03-17T23:58:55.462Z,98955.05
